sensor_id;sensor_type;location;lat;lon;timestamp;P1;durP1;ratioP1;P2;durP2;ratioP2
49784;SDS011;35679;38.732;-121.358;2023-02-19T00:00:37;5.32;;;3.55;;
49784;SDS011;35679;38.732;-121.358;2023-02-19T00:03:26;13.95;;;4.60;;
49784;SDS011;35679;38.732;-121.358;2023-02-19T00:06:16;11.27;;;4.38;;
49784;SDS011;35679;38.732;-121.358;2023-02-19T01:23:12;5.95;;;3.70;;
49784;SDS011;35679;38.732;-121.358;2023-02-19T01:26:05;6.03;;;3.33;;
49784;SDS011;35679;38.732;-121.358;2023-02-19T01:28:56;8.48;;;3.47;;
49784;SDS011;35679;38.732;-121.358;2023-02-19T01:31:46;4.00;;;3.30;;
49784;SDS011;35679;38.732;-121.358;2023-02-19T01:34:36;7.18;;;3.75;;
49784;SDS011;35679;38.732;-121.358;2023-02-19T01:37:25;6.55;;;3.53;;
49784;SDS011;35679;38.732;-121.358;2023-02-19T01:40:15;7.18;;;3.70;;
49784;SDS011;35679;38.732;-121.358;2023-02-19T01:43:10;7.22;;;3.63;;
49784;SDS011;35679;38.732;-121.358;2023-02-19T01:46:03;8.02;;;3.38;;
49784;SDS011;35679;38.732;-121.358;2023-02-19T01:48:52;7.97;;;3.58;;
49784;SDS011;35679;38.732;-121.358;2023-02-19T01:51:45;7.38;;;3.42;;
49784;SDS011;35679;38.732;-121.358;2023-02-19T01:54:41;5.72;;;3.53;;
49784;SDS011;35679;38.732;-121.358;2023-02-19T01:57:35;6.32;;;3.67;;
49784;SDS011;35679;38.732;-121.358;2023-02-19T02:00:29;7.72;;;3.53;;
49784;SDS011;35679;38.732;-121.358;2023-02-19T02:03:22;5.05;;;3.10;;
49784;SDS011;35679;38.732;-121.358;2023-02-19T02:09:11;5.05;;;3.53;;
49784;SDS011;35679;38.732;-121.358;2023-02-19T02:12:20;6.20;;;3.40;;
49784;SDS011;35679;38.732;-121.358;2023-02-19T02:15:09;5.88;;;3.45;;
49784;SDS011;35679;38.732;-121.358;2023-02-19T02:18:20;3.72;;;3.20;;
49784;SDS011;35679;38.732;-121.358;2023-02-19T02:21:43;5.53;;;3.22;;
49784;SDS011;35679;38.732;-121.358;2023-02-19T02:30:57;4.78;;;3.78;;
49784;SDS011;35679;38.732;-121.358;2023-02-19T02:33:57;6.38;;;3.80;;
49784;SDS011;35679;38.732;-121.358;2023-02-19T02:36:52;6.13;;;3.30;;
49784;SDS011;35679;38.732;-121.358;2023-02-19T02:39:44;5.05;;;3.50;;
49784;SDS011;35679;38.732;-121.358;2023-02-19T02:42:37;3.53;;;3.20;;
49784;SDS011;35679;38.732;-121.358;2023-02-19T02:45:31;4.30;;;3.28;;
49784;SDS011;35679;38.732;-121.358;2023-02-19T02:48:38;7.40;;;3.72;;
49784;SDS011;35679;38.732;-121.358;2023-02-19T02:51:35;5.57;;;3.50;;
49784;SDS011;35679;38.732;-121.358;2023-02-19T02:54:34;4.25;;;3.30;;
49784;SDS011;35679;38.732;-121.358;2023-02-19T02:57:43;3.40;;;3.10;;
49784;SDS011;35679;38.732;-121.358;2023-02-19T03:00:32;3.70;;;3.40;;
49784;SDS011;35679;38.732;-121.358;2023-02-19T03:03:44;3.70;;;2.97;;
49784;SDS011;35679;38.732;-121.358;2023-02-19T03:06:36;4.60;;;3.45;;
49784;SDS011;35679;38.732;-121.358;2023-02-19T03:09:36;4.45;;;3.40;;
49784;SDS011;35679;38.732;-121.358;2023-02-19T03:12:29;4.03;;;3.05;;
49784;SDS011;35679;38.732;-121.358;2023-02-19T03:15:44;4.07;;;3.38;;
49784;SDS011;35679;38.732;-121.358;2023-02-19T03:18:57;4.72;;;3.13;;
49784;SDS011;35679;38.732;-121.358;2023-02-19T03:22:14;6.35;;;3.70;;
49784;SDS011;35679;38.732;-121.358;2023-02-19T03:25:14;3.47;;;3.17;;
49784;SDS011;35679;38.732;-121.358;2023-02-19T03:28:26;4.18;;;3.50;;
49784;SDS011;35679;38.732;-121.358;2023-02-19T03:31:36;3.17;;;2.90;;
49784;SDS011;35679;38.732;-121.358;2023-02-19T03:34:37;4.00;;;3.58;;
49784;SDS011;35679;38.732;-121.358;2023-02-19T03:37:46;4.00;;;3.20;;
49784;SDS011;35679;38.732;-121.358;2023-02-19T03:41:03;4.80;;;3.50;;
49784;SDS011;35679;38.732;-121.358;2023-02-19T03:44:21;3.83;;;3.53;;
49784;SDS011;35679;38.732;-121.358;2023-02-19T03:47:45;4.28;;;2.95;;
49784;SDS011;35679;38.732;-121.358;2023-02-19T03:50:48;4.22;;;3.40;;
49784;SDS011;35679;38.732;-121.358;2023-02-19T03:53:50;3.47;;;3.17;;
49784;SDS011;35679;38.732;-121.358;2023-02-19T03:56:52;3.40;;;3.20;;
49784;SDS011;35679;38.732;-121.358;2023-02-19T03:59:50;3.92;;;3.45;;
49784;SDS011;35679;38.732;-121.358;2023-02-19T04:02:53;3.33;;;3.10;;
49784;SDS011;35679;38.732;-121.358;2023-02-19T04:05:49;3.72;;;3.40;;
49784;SDS011;35679;38.732;-121.358;2023-02-19T04:08:44;4.57;;;3.03;;
49784;SDS011;35679;38.732;-121.358;2023-02-19T04:11:37;4.20;;;3.65;;
49784;SDS011;35679;38.732;-121.358;2023-02-19T04:14:33;3.75;;;3.13;;
49784;SDS011;35679;38.732;-121.358;2023-02-19T04:17:41;3.33;;;3.13;;
49784;SDS011;35679;38.732;-121.358;2023-02-19T04:20:45;4.13;;;3.00;;
49784;SDS011;35679;38.732;-121.358;2023-02-19T04:23:39;3.65;;;3.40;;
49784;SDS011;35679;38.732;-121.358;2023-02-19T04:26:32;3.25;;;3.00;;
49784;SDS011;35679;38.732;-121.358;2023-02-19T04:29:22;3.70;;;3.05;;
49784;SDS011;35679;38.732;-121.358;2023-02-19T04:32:12;4.90;;;3.40;;
49784;SDS011;35679;38.732;-121.358;2023-02-19T04:35:02;3.67;;;3.38;;
49784;SDS011;35679;38.732;-121.358;2023-02-19T04:37:52;3.60;;;3.30;;
49784;SDS011;35679;38.732;-121.358;2023-02-19T04:40:41;4.35;;;3.58;;
49784;SDS011;35679;38.732;-121.358;2023-02-19T04:43:31;3.65;;;3.38;;
49784;SDS011;35679;38.732;-121.358;2023-02-19T04:46:20;3.92;;;3.40;;
49784;SDS011;35679;38.732;-121.358;2023-02-19T04:49:09;3.30;;;3.10;;
49784;SDS011;35679;38.732;-121.358;2023-02-19T04:51:58;3.70;;;3.50;;
49784;SDS011;35679;38.732;-121.358;2023-02-19T04:54:48;4.90;;;3.35;;
49784;SDS011;35679;38.732;-121.358;2023-02-19T04:57:37;3.85;;;3.30;;
49784;SDS011;35679;38.732;-121.358;2023-02-19T05:00:28;3.67;;;3.30;;
49784;SDS011;35679;38.732;-121.358;2023-02-19T05:03:19;3.30;;;3.10;;
49784;SDS011;35679;38.732;-121.358;2023-02-19T05:06:10;3.78;;;3.45;;
49784;SDS011;35679;38.732;-121.358;2023-02-19T05:09:02;3.42;;;3.13;;
49784;SDS011;35679;38.732;-121.358;2023-02-19T05:11:52;3.90;;;3.38;;
49784;SDS011;35679;38.732;-121.358;2023-02-19T05:14:41;5.05;;;3.60;;
49784;SDS011;35679;38.732;-121.358;2023-02-19T05:17:32;3.47;;;3.15;;
49784;SDS011;35679;38.732;-121.358;2023-02-19T05:20:23;3.85;;;3.55;;
49784;SDS011;35679;38.732;-121.358;2023-02-19T05:23:13;4.55;;;3.20;;
49784;SDS011;35679;38.732;-121.358;2023-02-19T05:26:06;3.78;;;3.38;;
49784;SDS011;35679;38.732;-121.358;2023-02-19T05:28:56;3.70;;;3.40;;
49784;SDS011;35679;38.732;-121.358;2023-02-19T05:31:45;4.22;;;3.83;;
49784;SDS011;35679;38.732;-121.358;2023-02-19T05:34:36;4.95;;;3.90;;
49784;SDS011;35679;38.732;-121.358;2023-02-19T05:37:25;4.65;;;4.07;;
49784;SDS011;35679;38.732;-121.358;2023-02-19T05:40:15;5.07;;;3.90;;
49784;SDS011;35679;38.732;-121.358;2023-02-19T05:43:04;4.35;;;3.88;;
49784;SDS011;35679;38.732;-121.358;2023-02-19T05:45:57;5.13;;;3.95;;
49784;SDS011;35679;38.732;-121.358;2023-02-19T05:48:46;4.90;;;4.28;;
49784;SDS011;35679;38.732;-121.358;2023-02-19T05:51:36;4.13;;;3.72;;
49784;SDS011;35679;38.732;-121.358;2023-02-19T05:54:29;5.28;;;3.90;;
49784;SDS011;35679;38.732;-121.358;2023-02-19T05:57:19;4.78;;;4.28;;
49784;SDS011;35679;38.732;-121.358;2023-02-19T06:00:09;4.93;;;4.38;;
49784;SDS011;35679;38.732;-121.358;2023-02-19T06:03:03;4.18;;;3.78;;
49784;SDS011;35679;38.732;-121.358;2023-02-19T06:05:52;4.90;;;4.32;;
49784;SDS011;35679;38.732;-121.358;2023-02-19T06:08:41;4.53;;;4.10;;
49784;SDS011;35679;38.732;-121.358;2023-02-19T06:11:31;5.18;;;4.30;;
49784;SDS011;35679;38.732;-121.358;2023-02-19T06:14:20;6.05;;;4.40;;
49784;SDS011;35679;38.732;-121.358;2023-02-19T06:17:09;5.10;;;4.40;;
49784;SDS011;35679;38.732;-121.358;2023-02-19T06:19:58;5.22;;;4.10;;
49784;SDS011;35679;38.732;-121.358;2023-02-19T06:22:49;5.00;;;4.35;;
49784;SDS011;35679;38.732;-121.358;2023-02-19T06:25:39;4.90;;;4.10;;
49784;SDS011;35679;38.732;-121.358;2023-02-19T06:28:28;5.82;;;4.60;;
49784;SDS011;35679;38.732;-121.358;2023-02-19T06:31:18;4.47;;;3.92;;
49784;SDS011;35679;38.732;-121.358;2023-02-19T06:34:09;6.07;;;4.60;;
49784;SDS011;35679;38.732;-121.358;2023-02-19T06:36:58;4.30;;;3.90;;
49784;SDS011;35679;38.732;-121.358;2023-02-19T06:39:48;5.57;;;4.22;;
49784;SDS011;35679;38.732;-121.358;2023-02-19T06:42:38;5.55;;;4.30;;
49784;SDS011;35679;38.732;-121.358;2023-02-19T06:45:27;5.35;;;4.68;;
49784;SDS011;35679;38.732;-121.358;2023-02-19T06:48:17;4.85;;;4.38;;
49784;SDS011;35679;38.732;-121.358;2023-02-19T06:51:06;4.70;;;4.30;;
49784;SDS011;35679;38.732;-121.358;2023-02-19T06:53:58;5.18;;;4.72;;
49784;SDS011;35679;38.732;-121.358;2023-02-19T06:56:49;5.20;;;4.70;;
49784;SDS011;35679;38.732;-121.358;2023-02-19T06:59:38;4.95;;;4.45;;
49784;SDS011;35679;38.732;-121.358;2023-02-19T07:02:28;5.53;;;4.53;;
49784;SDS011;35679;38.732;-121.358;2023-02-19T07:05:17;4.97;;;4.47;;
49784;SDS011;35679;38.732;-121.358;2023-02-19T07:08:08;6.25;;;4.72;;
49784;SDS011;35679;38.732;-121.358;2023-02-19T07:10:57;5.45;;;4.63;;
49784;SDS011;35679;38.732;-121.358;2023-02-19T07:13:47;4.90;;;4.40;;
49784;SDS011;35679;38.732;-121.358;2023-02-19T07:16:42;5.15;;;4.65;;
49784;SDS011;35679;38.732;-121.358;2023-02-19T07:19:31;5.28;;;4.38;;
49784;SDS011;35679;38.732;-121.358;2023-02-19T07:22:21;7.03;;;4.60;;
49784;SDS011;35679;38.732;-121.358;2023-02-19T07:25:10;5.75;;;4.57;;
49784;SDS011;35679;38.732;-121.358;2023-02-19T07:27:59;5.38;;;4.88;;
49784;SDS011;35679;38.732;-121.358;2023-02-19T07:30:48;6.88;;;4.82;;
49784;SDS011;35679;38.732;-121.358;2023-02-19T07:33:38;6.03;;;5.05;;
49784;SDS011;35679;38.732;-121.358;2023-02-19T07:36:27;5.95;;;4.70;;
49784;SDS011;35679;38.732;-121.358;2023-02-19T07:39:16;7.78;;;4.85;;
49784;SDS011;35679;38.732;-121.358;2023-02-19T07:42:06;7.85;;;5.43;;
49784;SDS011;35679;38.732;-121.358;2023-02-19T07:44:56;5.95;;;5.07;;
49784;SDS011;35679;38.732;-121.358;2023-02-19T07:47:47;6.00;;;5.35;;
49784;SDS011;35679;38.732;-121.358;2023-02-19T07:50:36;5.78;;;5.18;;
49784;SDS011;35679;38.732;-121.358;2023-02-19T07:53:26;8.07;;;5.28;;
49784;SDS011;35679;38.732;-121.358;2023-02-19T07:56:16;8.00;;;5.63;;
49784;SDS011;35679;38.732;-121.358;2023-02-19T07:59:06;6.60;;;5.55;;
49784;SDS011;35679;38.732;-121.358;2023-02-19T08:01:55;6.60;;;5.90;;
49784;SDS011;35679;38.732;-121.358;2023-02-19T08:05:23;7.53;;;5.55;;
49784;SDS011;35679;38.732;-121.358;2023-02-19T08:08:14;7.53;;;4.97;;
49784;SDS011;35679;38.732;-121.358;2023-02-19T08:11:04;6.05;;;5.20;;
49784;SDS011;35679;38.732;-121.358;2023-02-19T08:14:12;6.70;;;5.45;;
49784;SDS011;35679;38.732;-121.358;2023-02-19T08:17:02;9.10;;;6.03;;
49784;SDS011;35679;38.732;-121.358;2023-02-19T08:19:51;8.10;;;6.10;;
49784;SDS011;35679;38.732;-121.358;2023-02-19T08:22:40;6.60;;;5.90;;
49784;SDS011;35679;38.732;-121.358;2023-02-19T08:25:30;5.90;;;5.10;;
49784;SDS011;35679;38.732;-121.358;2023-02-19T08:28:20;7.68;;;5.47;;
49784;SDS011;35679;38.732;-121.358;2023-02-19T08:31:09;8.77;;;5.47;;
49784;SDS011;35679;38.732;-121.358;2023-02-19T08:34:00;7.50;;;5.68;;
49784;SDS011;35679;38.732;-121.358;2023-02-19T08:36:50;8.48;;;5.68;;
49784;SDS011;35679;38.732;-121.358;2023-02-19T08:39:39;7.53;;;5.80;;
49784;SDS011;35679;38.732;-121.358;2023-02-19T08:42:28;6.60;;;6.00;;
49784;SDS011;35679;38.732;-121.358;2023-02-19T08:45:17;6.80;;;5.50;;
49784;SDS011;35679;38.732;-121.358;2023-02-19T08:48:08;6.72;;;5.80;;
49784;SDS011;35679;38.732;-121.358;2023-02-19T08:50:59;8.63;;;6.63;;
49784;SDS011;35679;38.732;-121.358;2023-02-19T08:53:51;8.53;;;6.30;;
49784;SDS011;35679;38.732;-121.358;2023-02-19T08:56:40;10.00;;;6.70;;
49784;SDS011;35679;38.732;-121.358;2023-02-19T08:59:30;9.43;;;6.63;;
49784;SDS011;35679;38.732;-121.358;2023-02-19T09:02:20;9.55;;;6.20;;
49784;SDS011;35679;38.732;-121.358;2023-02-19T09:05:10;9.10;;;6.45;;
49784;SDS011;35679;38.732;-121.358;2023-02-19T09:08:00;8.82;;;6.50;;
49784;SDS011;35679;38.732;-121.358;2023-02-19T09:10:59;10.88;;;7.05;;
49784;SDS011;35679;38.732;-121.358;2023-02-19T09:13:50;10.18;;;6.80;;
49784;SDS011;35679;38.732;-121.358;2023-02-19T09:16:39;10.02;;;6.68;;
49784;SDS011;35679;38.732;-121.358;2023-02-19T09:19:29;10.40;;;7.10;;
49784;SDS011;35679;38.732;-121.358;2023-02-19T09:22:18;12.40;;;7.35;;
49784;SDS011;35679;38.732;-121.358;2023-02-19T09:25:08;12.82;;;7.38;;
49784;SDS011;35679;38.732;-121.358;2023-02-19T09:27:57;14.23;;;7.78;;
49784;SDS011;35679;38.732;-121.358;2023-02-19T09:30:46;11.50;;;7.47;;
49784;SDS011;35679;38.732;-121.358;2023-02-19T09:33:35;11.07;;;8.02;;
49784;SDS011;35679;38.732;-121.358;2023-02-19T09:36:25;12.10;;;8.02;;
49784;SDS011;35679;38.732;-121.358;2023-02-19T09:39:14;11.50;;;7.88;;
49784;SDS011;35679;38.732;-121.358;2023-02-19T09:42:14;13.57;;;8.07;;
49784;SDS011;35679;38.732;-121.358;2023-02-19T09:45:14;14.27;;;7.78;;
49784;SDS011;35679;38.732;-121.358;2023-02-19T09:48:11;10.18;;;7.00;;
49784;SDS011;35679;38.732;-121.358;2023-02-19T09:51:01;12.25;;;7.20;;
49784;SDS011;35679;38.732;-121.358;2023-02-19T09:53:51;14.60;;;7.88;;
49784;SDS011;35679;38.732;-121.358;2023-02-19T09:56:43;11.35;;;7.68;;
49784;SDS011;35679;38.732;-121.358;2023-02-19T09:59:36;14.18;;;7.47;;
49784;SDS011;35679;38.732;-121.358;2023-02-19T10:02:32;9.95;;;7.57;;
49784;SDS011;35679;38.732;-121.358;2023-02-19T10:05:21;11.10;;;7.35;;
49784;SDS011;35679;38.732;-121.358;2023-02-19T10:08:14;12.07;;;7.93;;
49784;SDS011;35679;38.732;-121.358;2023-02-19T10:11:07;12.23;;;7.18;;
49784;SDS011;35679;38.732;-121.358;2023-02-19T10:14:04;10.15;;;7.60;;
49784;SDS011;35679;38.732;-121.358;2023-02-19T10:17:03;11.35;;;8.48;;
49784;SDS011;35679;38.732;-121.358;2023-02-19T10:19:54;12.90;;;7.85;;
49784;SDS011;35679;38.732;-121.358;2023-02-19T10:22:44;13.15;;;7.90;;
49784;SDS011;35679;38.732;-121.358;2023-02-19T10:25:34;13.05;;;7.65;;
49784;SDS011;35679;38.732;-121.358;2023-02-19T10:28:32;12.90;;;8.38;;
49784;SDS011;35679;38.732;-121.358;2023-02-19T10:31:23;10.57;;;8.00;;
49784;SDS011;35679;38.732;-121.358;2023-02-19T10:34:20;11.25;;;7.82;;
49784;SDS011;35679;38.732;-121.358;2023-02-19T10:37:13;12.60;;;8.18;;
49784;SDS011;35679;38.732;-121.358;2023-02-19T10:40:11;11.93;;;8.43;;
49784;SDS011;35679;38.732;-121.358;2023-02-19T10:43:19;13.90;;;8.68;;
49784;SDS011;35679;38.732;-121.358;2023-02-19T10:46:26;12.02;;;8.77;;
49784;SDS011;35679;38.732;-121.358;2023-02-19T10:49:22;12.65;;;8.10;;
49784;SDS011;35679;38.732;-121.358;2023-02-19T10:52:28;12.27;;;8.18;;
49784;SDS011;35679;38.732;-121.358;2023-02-19T10:55:25;13.50;;;8.65;;
49784;SDS011;35679;38.732;-121.358;2023-02-19T10:58:24;13.15;;;9.63;;
49784;SDS011;35679;38.732;-121.358;2023-02-19T11:01:16;13.88;;;8.90;;
49784;SDS011;35679;38.732;-121.358;2023-02-19T11:07:12;12.82;;;8.50;;
49784;SDS011;35679;38.732;-121.358;2023-02-19T11:10:05;12.43;;;8.90;;
49784;SDS011;35679;38.732;-121.358;2023-02-19T11:13:03;11.52;;;8.40;;
49784;SDS011;35679;38.732;-121.358;2023-02-19T11:15:55;11.90;;;8.68;;
49784;SDS011;35679;38.732;-121.358;2023-02-19T11:18:51;15.93;;;9.25;;
49784;SDS011;35679;38.732;-121.358;2023-02-19T11:21:44;12.15;;;8.93;;
49784;SDS011;35679;38.732;-121.358;2023-02-19T11:24:34;14.30;;;8.80;;
49784;SDS011;35679;38.732;-121.358;2023-02-19T11:27:25;15.32;;;9.52;;
49784;SDS011;35679;38.732;-121.358;2023-02-19T11:30:31;12.75;;;9.65;;
49784;SDS011;35679;38.732;-121.358;2023-02-19T11:33:30;14.55;;;9.63;;
49784;SDS011;35679;38.732;-121.358;2023-02-19T11:36:33;13.95;;;9.43;;
49784;SDS011;35679;38.732;-121.358;2023-02-19T11:39:25;12.45;;;9.23;;
49784;SDS011;35679;38.732;-121.358;2023-02-19T11:48:26;11.88;;;9.90;;
49784;SDS011;35679;38.732;-121.358;2023-02-19T11:54:50;17.00;;;9.65;;
49784;SDS011;35679;38.732;-121.358;2023-02-19T12:01:16;15.60;;;10.63;;
49784;SDS011;35679;38.732;-121.358;2023-02-19T12:04:19;13.75;;;9.27;;
49784;SDS011;35679;38.732;-121.358;2023-02-19T12:13:56;11.73;;;9.38;;
49784;SDS011;35679;38.732;-121.358;2023-02-19T12:23:02;13.23;;;9.65;;
49784;SDS011;35679;38.732;-121.358;2023-02-19T12:26:29;14.63;;;9.90;;
49784;SDS011;35679;38.732;-121.358;2023-02-19T12:29:23;17.75;;;9.82;;
49784;SDS011;35679;38.732;-121.358;2023-02-19T12:32:37;17.73;;;9.07;;
49784;SDS011;35679;38.732;-121.358;2023-02-19T12:38:42;13.70;;;9.38;;
49784;SDS011;35679;38.732;-121.358;2023-02-19T12:44:47;14.15;;;10.10;;
49784;SDS011;35679;38.732;-121.358;2023-02-19T12:47:43;14.38;;;9.80;;
49784;SDS011;35679;38.732;-121.358;2023-02-19T13:03:22;15.00;;;10.30;;
49784;SDS011;35679;38.732;-121.358;2023-02-19T13:09:31;14.07;;;10.25;;
49784;SDS011;35679;38.732;-121.358;2023-02-19T13:12:41;13.77;;;9.48;;
49784;SDS011;35679;38.732;-121.358;2023-02-19T13:15:34;13.00;;;9.68;;
49784;SDS011;35679;38.732;-121.358;2023-02-19T13:19:02;15.18;;;10.63;;
49784;SDS011;35679;38.732;-121.358;2023-02-19T13:21:48;13.82;;;9.52;;
49784;SDS011;35679;38.732;-121.358;2023-02-19T13:25:03;15.95;;;10.25;;
49784;SDS011;35679;38.732;-121.358;2023-02-19T13:37:15;12.80;;;9.48;;
49784;SDS011;35679;38.732;-121.358;2023-02-19T13:40:05;17.25;;;9.75;;
49784;SDS011;35679;38.732;-121.358;2023-02-19T13:43:23;13.45;;;9.98;;
49784;SDS011;35679;38.732;-121.358;2023-02-19T13:46:15;15.10;;;9.63;;
49784;SDS011;35679;38.732;-121.358;2023-02-19T13:58:35;15.70;;;10.68;;
49784;SDS011;35679;38.732;-121.358;2023-02-19T14:02:22;17.67;;;10.77;;
49784;SDS011;35679;38.732;-121.358;2023-02-19T14:04:40;14.68;;;10.52;;
49784;SDS011;35679;38.732;-121.358;2023-02-19T14:07:36;14.70;;;10.13;;
49784;SDS011;35679;38.732;-121.358;2023-02-19T14:10:52;15.77;;;10.88;;
49784;SDS011;35679;38.732;-121.358;2023-02-19T14:25:35;15.27;;;11.20;;
49784;SDS011;35679;38.732;-121.358;2023-02-19T14:28:49;13.95;;;11.10;;
49784;SDS011;35679;38.732;-121.358;2023-02-19T14:31:42;13.57;;;11.05;;
49784;SDS011;35679;38.732;-121.358;2023-02-19T14:34:33;12.80;;;10.80;;
49784;SDS011;35679;38.732;-121.358;2023-02-19T14:37:23;15.25;;;11.80;;
49784;SDS011;35679;38.732;-121.358;2023-02-19T14:40:17;16.13;;;12.13;;
49784;SDS011;35679;38.732;-121.358;2023-02-19T14:43:13;17.25;;;12.18;;
49784;SDS011;35679;38.732;-121.358;2023-02-19T14:52:06;14.38;;;12.05;;
49784;SDS011;35679;38.732;-121.358;2023-02-19T14:55:09;16.98;;;11.95;;
49784;SDS011;35679;38.732;-121.358;2023-02-19T14:58:29;13.18;;;11.15;;
49784;SDS011;35679;38.732;-121.358;2023-02-19T15:01:26;14.27;;;9.93;;
49784;SDS011;35679;38.732;-121.358;2023-02-19T15:04:24;13.98;;;11.23;;
49784;SDS011;35679;38.732;-121.358;2023-02-19T15:07:18;13.27;;;9.73;;
49784;SDS011;35679;38.732;-121.358;2023-02-19T15:10:11;12.95;;;9.07;;
49784;SDS011;35679;38.732;-121.358;2023-02-19T15:13:02;13.43;;;9.38;;
49784;SDS011;35679;38.732;-121.358;2023-02-19T15:15:59;13.63;;;10.45;;
49784;SDS011;35679;38.732;-121.358;2023-02-19T15:18:48;13.65;;;10.15;;
49784;SDS011;35679;38.732;-121.358;2023-02-19T15:21:42;12.32;;;10.00;;
49784;SDS011;35679;38.732;-121.358;2023-02-19T15:24:34;15.18;;;9.52;;
49784;SDS011;35679;38.732;-121.358;2023-02-19T15:27:23;15.05;;;10.30;;
49784;SDS011;35679;38.732;-121.358;2023-02-19T15:30:20;14.65;;;10.13;;
49784;SDS011;35679;38.732;-121.358;2023-02-19T15:33:18;15.27;;;10.82;;
49784;SDS011;35679;38.732;-121.358;2023-02-19T15:36:10;13.75;;;11.60;;
49784;SDS011;35679;38.732;-121.358;2023-02-19T15:39:01;14.45;;;10.63;;
49784;SDS011;35679;38.732;-121.358;2023-02-19T15:41:52;14.15;;;10.07;;
49784;SDS011;35679;38.732;-121.358;2023-02-19T15:48:11;14.27;;;10.57;;
49784;SDS011;35679;38.732;-121.358;2023-02-19T15:51:07;13.43;;;9.85;;
49784;SDS011;35679;38.732;-121.358;2023-02-19T15:54:05;13.75;;;10.48;;
49784;SDS011;35679;38.732;-121.358;2023-02-19T15:57:17;13.95;;;10.85;;
49784;SDS011;35679;38.732;-121.358;2023-02-19T16:00:14;13.70;;;10.02;;
49784;SDS011;35679;38.732;-121.358;2023-02-19T16:03:12;15.82;;;10.23;;
49784;SDS011;35679;38.732;-121.358;2023-02-19T16:06:14;13.15;;;9.95;;
49784;SDS011;35679;38.732;-121.358;2023-02-19T16:09:05;14.70;;;10.23;;
49784;SDS011;35679;38.732;-121.358;2023-02-19T16:12:20;13.95;;;10.15;;
49784;SDS011;35679;38.732;-121.358;2023-02-19T16:15:17;13.82;;;9.80;;
49784;SDS011;35679;38.732;-121.358;2023-02-19T16:18:10;13.65;;;10.20;;
49784;SDS011;35679;38.732;-121.358;2023-02-19T16:21:04;13.70;;;10.05;;
49784;SDS011;35679;38.732;-121.358;2023-02-19T16:24:00;14.75;;;10.93;;
49784;SDS011;35679;38.732;-121.358;2023-02-19T16:27:04;12.25;;;10.10;;
49784;SDS011;35679;38.732;-121.358;2023-02-19T16:29:55;13.82;;;10.50;;
49784;SDS011;35679;38.732;-121.358;2023-02-19T16:32:45;13.02;;;10.63;;
49784;SDS011;35679;38.732;-121.358;2023-02-19T16:35:35;13.52;;;11.13;;
49784;SDS011;35679;38.732;-121.358;2023-02-19T16:38:27;12.60;;;11.23;;
49784;SDS011;35679;38.732;-121.358;2023-02-19T16:41:16;12.73;;;11.25;;
49784;SDS011;35679;38.732;-121.358;2023-02-19T16:47:18;13.30;;;10.57;;
49784;SDS011;35679;38.732;-121.358;2023-02-19T16:50:13;15.80;;;11.18;;
49784;SDS011;35679;38.732;-121.358;2023-02-19T16:53:04;14.32;;;10.52;;
49784;SDS011;35679;38.732;-121.358;2023-02-19T16:55:53;11.60;;;10.23;;
49784;SDS011;35679;38.732;-121.358;2023-02-19T16:58:43;17.13;;;11.05;;
49784;SDS011;35679;38.732;-121.358;2023-02-19T17:01:32;20.40;;;10.65;;
49784;SDS011;35679;38.732;-121.358;2023-02-19T17:04:23;14.55;;;9.98;;
49784;SDS011;35679;38.732;-121.358;2023-02-19T17:07:13;16.60;;;10.77;;
49784;SDS011;35679;38.732;-121.358;2023-02-19T17:10:04;19.98;;;11.45;;
49784;SDS011;35679;38.732;-121.358;2023-02-19T17:12:54;20.05;;;11.20;;
49784;SDS011;35679;38.732;-121.358;2023-02-19T17:15:44;21.98;;;11.25;;
49784;SDS011;35679;38.732;-121.358;2023-02-19T17:18:33;22.83;;;11.27;;
49784;SDS011;35679;38.732;-121.358;2023-02-19T17:21:24;29.50;;;11.82;;
49784;SDS011;35679;38.732;-121.358;2023-02-19T17:24:14;23.38;;;12.02;;
49784;SDS011;35679;38.732;-121.358;2023-02-19T17:27:07;34.72;;;12.68;;
49784;SDS011;35679;38.732;-121.358;2023-02-19T17:29:58;25.38;;;10.80;;
49784;SDS011;35679;38.732;-121.358;2023-02-19T17:32:48;20.45;;;9.88;;
49784;SDS011;35679;38.732;-121.358;2023-02-19T17:35:37;25.15;;;10.98;;
49784;SDS011;35679;38.732;-121.358;2023-02-19T17:38:26;31.48;;;12.20;;
49784;SDS011;35679;38.732;-121.358;2023-02-19T17:41:16;40.72;;;11.80;;
49784;SDS011;35679;38.732;-121.358;2023-02-19T17:44:05;25.95;;;10.43;;
49784;SDS011;35679;38.732;-121.358;2023-02-19T17:46:54;26.33;;;10.75;;
49784;SDS011;35679;38.732;-121.358;2023-02-19T17:49:43;29.63;;;11.05;;
49784;SDS011;35679;38.732;-121.358;2023-02-19T17:52:32;29.30;;;10.25;;
49784;SDS011;35679;38.732;-121.358;2023-02-19T17:55:23;30.50;;;11.13;;
49784;SDS011;35679;38.732;-121.358;2023-02-19T17:58:14;44.63;;;10.52;;
49784;SDS011;35679;38.732;-121.358;2023-02-19T18:01:04;39.33;;;11.25;;
49784;SDS011;35679;38.732;-121.358;2023-02-19T18:03:53;38.38;;;10.38;;
49784;SDS011;35679;38.732;-121.358;2023-02-19T18:06:43;36.00;;;12.05;;
49784;SDS011;35679;38.732;-121.358;2023-02-19T18:09:32;41.78;;;10.90;;
49784;SDS011;35679;38.732;-121.358;2023-02-19T18:12:21;41.08;;;11.07;;
49784;SDS011;35679;38.732;-121.358;2023-02-19T18:15:18;23.50;;;10.38;;
49784;SDS011;35679;38.732;-121.358;2023-02-19T18:18:11;37.28;;;10.85;;
49784;SDS011;35679;38.732;-121.358;2023-02-19T18:21:01;35.85;;;11.70;;
49784;SDS011;35679;38.732;-121.358;2023-02-19T18:23:51;34.88;;;10.82;;
49784;SDS011;35679;38.732;-121.358;2023-02-19T18:26:41;30.17;;;10.63;;
49784;SDS011;35679;38.732;-121.358;2023-02-19T18:29:32;21.25;;;9.43;;
49784;SDS011;35679;38.732;-121.358;2023-02-19T18:32:23;23.70;;;9.65;;
49784;SDS011;35679;38.732;-121.358;2023-02-19T18:35:13;30.50;;;9.68;;
49784;SDS011;35679;38.732;-121.358;2023-02-19T18:38:03;102.03;;;16.67;;
49784;SDS011;35679;38.732;-121.358;2023-02-19T18:40:53;101.35;;;14.93;;
49784;SDS011;35679;38.732;-121.358;2023-02-19T18:43:45;74.03;;;12.82;;
49784;SDS011;35679;38.732;-121.358;2023-02-19T18:46:35;66.00;;;12.18;;
49784;SDS011;35679;38.732;-121.358;2023-02-19T18:49:24;84.40;;;15.50;;
49784;SDS011;35679;38.732;-121.358;2023-02-19T18:52:14;85.30;;;13.82;;
49784;SDS011;35679;38.732;-121.358;2023-02-19T18:55:08;96.57;;;14.68;;
49784;SDS011;35679;38.732;-121.358;2023-02-19T18:57:58;95.70;;;14.82;;
49784;SDS011;35679;38.732;-121.358;2023-02-19T19:00:47;117.63;;;17.08;;
49784;SDS011;35679;38.732;-121.358;2023-02-19T19:03:38;104.57;;;16.30;;
49784;SDS011;35679;38.732;-121.358;2023-02-19T19:06:27;94.35;;;15.20;;
49784;SDS011;35679;38.732;-121.358;2023-02-19T19:09:17;108.88;;;16.63;;
49784;SDS011;35679;38.732;-121.358;2023-02-19T19:12:07;97.32;;;14.18;;
49784;SDS011;35679;38.732;-121.358;2023-02-19T19:14:56;100.85;;;16.50;;
49784;SDS011;35679;38.732;-121.358;2023-02-19T19:17:46;86.28;;;15.43;;
49784;SDS011;35679;38.732;-121.358;2023-02-19T19:20:35;66.57;;;14.52;;
49784;SDS011;35679;38.732;-121.358;2023-02-19T19:23:25;80.05;;;14.02;;
49784;SDS011;35679;38.732;-121.358;2023-02-19T19:26:14;60.65;;;13.05;;
49784;SDS011;35679;38.732;-121.358;2023-02-19T19:29:06;67.90;;;13.73;;